sensor_id;sensor_type;location;lat;lon;timestamp;P1;durP1;ratioP1;P2;durP2;ratioP2
21239;SDS011;10778;48.962;9.018;2023-10-19T00:00:48;37.67;;;27.73;;
21239;SDS011;10778;48.962;9.018;2023-10-19T00:03:16;34.60;;;27.02;;
21239;SDS011;10778;48.962;9.018;2023-10-19T00:05:43;33.38;;;25.83;;
21239;SDS011;10778;48.962;9.018;2023-10-19T00:08:11;31.67;;;24.50;;
21239;SDS011;10778;48.962;9.018;2023-10-19T00:10:47;33.03;;;24.23;;
21239;SDS011;10778;48.962;9.018;2023-10-19T00:13:21;29.88;;;23.77;;
21239;SDS011;10778;48.962;9.018;2023-10-19T00:15:48;30.92;;;24.02;;
21239;SDS011;10778;48.962;9.018;2023-10-19T00:18:17;30.50;;;23.40;;
21239;SDS011;10778;48.962;9.018;2023-10-19T00:20:44;32.58;;;24.80;;
21239;SDS011;10778;48.962;9.018;2023-10-19T00:23:12;32.63;;;25.83;;
21239;SDS011;10778;48.962;9.018;2023-10-19T00:25:44;36.70;;;27.85;;
21239;SDS011;10778;48.962;9.018;2023-10-19T00:28:17;41.58;;;30.13;;
21239;SDS011;10778;48.962;9.018;2023-10-19T00:30:44;35.72;;;27.10;;
21239;SDS011;10778;48.962;9.018;2023-10-19T00:33:11;34.72;;;25.48;;
21239;SDS011;10778;48.962;9.018;2023-10-19T00:35:47;32.63;;;25.83;;
21239;SDS011;10778;48.962;9.018;2023-10-19T00:38:23;34.10;;;25.27;;
21239;SDS011;10778;48.962;9.018;2023-10-19T00:40:53;33.15;;;24.30;;
21239;SDS011;10778;48.962;9.018;2023-10-19T00:43:28;36.47;;;26.88;;
21239;SDS011;10778;48.962;9.018;2023-10-19T00:46:00;38.25;;;28.38;;
21239;SDS011;10778;48.962;9.018;2023-10-19T00:48:43;41.72;;;30.27;;
21239;SDS011;10778;48.962;9.018;2023-10-19T00:51:14;43.40;;;30.58;;
21239;SDS011;10778;48.962;9.018;2023-10-19T00:53:56;44.15;;;32.38;;
21239;SDS011;10778;48.962;9.018;2023-10-19T00:56:47;45.63;;;31.48;;
21239;SDS011;10778;48.962;9.018;2023-10-19T00:59:14;40.70;;;29.45;;
21239;SDS011;10778;48.962;9.018;2023-10-19T01:01:46;40.40;;;28.13;;
21239;SDS011;10778;48.962;9.018;2023-10-19T01:04:15;37.70;;;27.77;;
21239;SDS011;10778;48.962;9.018;2023-10-19T01:06:49;37.20;;;29.08;;
21239;SDS011;10778;48.962;9.018;2023-10-19T01:09:27;38.20;;;28.92;;
21239;SDS011;10778;48.962;9.018;2023-10-19T01:11:54;40.13;;;29.23;;
21239;SDS011;10778;48.962;9.018;2023-10-19T01:14:20;42.35;;;30.55;;
21239;SDS011;10778;48.962;9.018;2023-10-19T01:16:48;39.33;;;29.17;;
21239;SDS011;10778;48.962;9.018;2023-10-19T01:19:15;37.22;;;27.13;;
21239;SDS011;10778;48.962;9.018;2023-10-19T01:21:44;36.83;;;26.42;;
21239;SDS011;10778;48.962;9.018;2023-10-19T01:24:19;32.45;;;24.00;;
21239;SDS011;10778;48.962;9.018;2023-10-19T01:27:06;32.67;;;24.48;;
21239;SDS011;10778;48.962;9.018;2023-10-19T01:29:35;38.75;;;28.35;;
21239;SDS011;10778;48.962;9.018;2023-10-19T01:32:03;37.55;;;28.00;;
21239;SDS011;10778;48.962;9.018;2023-10-19T01:34:38;40.10;;;29.48;;
21239;SDS011;10778;48.962;9.018;2023-10-19T01:37:04;39.45;;;28.65;;
21239;SDS011;10778;48.962;9.018;2023-10-19T01:39:31;43.50;;;30.70;;
21239;SDS011;10778;48.962;9.018;2023-10-19T01:41:57;45.47;;;31.42;;
21239;SDS011;10778;48.962;9.018;2023-10-19T01:44:24;40.33;;;28.90;;
21239;SDS011;10778;48.962;9.018;2023-10-19T01:46:51;37.45;;;27.75;;
21239;SDS011;10778;48.962;9.018;2023-10-19T01:49:17;33.35;;;25.45;;
21239;SDS011;10778;48.962;9.018;2023-10-19T01:51:52;34.10;;;25.35;;
21239;SDS011;10778;48.962;9.018;2023-10-19T01:54:20;34.10;;;24.33;;
21239;SDS011;10778;48.962;9.018;2023-10-19T01:56:51;28.70;;;22.98;;
21239;SDS011;10778;48.962;9.018;2023-10-19T01:59:22;30.00;;;22.40;;
21239;SDS011;10778;48.962;9.018;2023-10-19T02:01:49;33.28;;;24.33;;
21239;SDS011;10778;48.962;9.018;2023-10-19T02:04:15;30.35;;;23.90;;
21239;SDS011;10778;48.962;9.018;2023-10-19T02:06:41;27.33;;;20.75;;
21239;SDS011;10778;48.962;9.018;2023-10-19T02:09:10;27.05;;;22.55;;
21239;SDS011;10778;48.962;9.018;2023-10-19T02:11:53;29.48;;;22.20;;
21239;SDS011;10778;48.962;9.018;2023-10-19T02:14:25;29.85;;;22.15;;
21239;SDS011;10778;48.962;9.018;2023-10-19T02:16:52;29.48;;;23.20;;
21239;SDS011;10778;48.962;9.018;2023-10-19T02:19:22;31.70;;;23.98;;
21239;SDS011;10778;48.962;9.018;2023-10-19T02:21:51;28.38;;;22.77;;
21239;SDS011;10778;48.962;9.018;2023-10-19T02:24:18;25.20;;;20.70;;
21239;SDS011;10778;48.962;9.018;2023-10-19T02:26:45;26.23;;;21.30;;
21239;SDS011;10778;48.962;9.018;2023-10-19T02:29:17;25.98;;;21.40;;
21239;SDS011;10778;48.962;9.018;2023-10-19T02:31:45;24.80;;;20.48;;
21239;SDS011;10778;48.962;9.018;2023-10-19T02:34:12;25.42;;;20.98;;
21239;SDS011;10778;48.962;9.018;2023-10-19T02:36:41;24.17;;;19.75;;
21239;SDS011;10778;48.962;9.018;2023-10-19T02:39:09;26.27;;;20.35;;
21239;SDS011;10778;48.962;9.018;2023-10-19T02:41:38;24.70;;;19.50;;
21239;SDS011;10778;48.962;9.018;2023-10-19T02:44:11;25.98;;;21.02;;
21239;SDS011;10778;48.962;9.018;2023-10-19T02:46:50;26.58;;;20.65;;
21239;SDS011;10778;48.962;9.018;2023-10-19T02:49:20;27.20;;;20.60;;
21239;SDS011;10778;48.962;9.018;2023-10-19T02:51:48;26.30;;;20.35;;
21239;SDS011;10778;48.962;9.018;2023-10-19T02:54:19;31.75;;;24.02;;
21239;SDS011;10778;48.962;9.018;2023-10-19T02:56:47;33.33;;;24.85;;
21239;SDS011;10778;48.962;9.018;2023-10-19T02:59:16;31.05;;;22.70;;
21239;SDS011;10778;48.962;9.018;2023-10-19T03:01:42;28.55;;;21.80;;
21239;SDS011;10778;48.962;9.018;2023-10-19T03:04:11;31.20;;;24.05;;
21239;SDS011;10778;48.962;9.018;2023-10-19T03:06:41;26.42;;;20.40;;
21239;SDS011;10778;48.962;9.018;2023-10-19T03:09:08;25.35;;;20.83;;
21239;SDS011;10778;48.962;9.018;2023-10-19T03:11:57;29.33;;;22.90;;
21239;SDS011;10778;48.962;9.018;2023-10-19T03:14:31;27.08;;;21.35;;
21239;SDS011;10778;48.962;9.018;2023-10-19T03:16:58;25.10;;;20.13;;
21239;SDS011;10778;48.962;9.018;2023-10-19T03:19:25;23.85;;;19.63;;
21239;SDS011;10778;48.962;9.018;2023-10-19T03:21:51;26.45;;;21.17;;
21239;SDS011;10778;48.962;9.018;2023-10-19T03:24:18;24.17;;;18.83;;
21239;SDS011;10778;48.962;9.018;2023-10-19T03:27:09;23.35;;;19.13;;
21239;SDS011;10778;48.962;9.018;2023-10-19T03:29:44;22.25;;;18.38;;
21239;SDS011;10778;48.962;9.018;2023-10-19T03:32:13;24.20;;;18.60;;
21239;SDS011;10778;48.962;9.018;2023-10-19T03:34:39;23.42;;;19.13;;
21239;SDS011;10778;48.962;9.018;2023-10-19T03:37:09;28.65;;;22.23;;
21239;SDS011;10778;48.962;9.018;2023-10-19T03:39:41;26.90;;;20.75;;
21239;SDS011;10778;48.962;9.018;2023-10-19T03:42:07;24.27;;;19.05;;
21239;SDS011;10778;48.962;9.018;2023-10-19T03:44:39;24.90;;;19.95;;
21239;SDS011;10778;48.962;9.018;2023-10-19T03:47:06;22.83;;;18.92;;
21239;SDS011;10778;48.962;9.018;2023-10-19T03:49:37;22.10;;;18.15;;
21239;SDS011;10778;48.962;9.018;2023-10-19T03:52:05;26.35;;;21.30;;
21239;SDS011;10778;48.962;9.018;2023-10-19T03:54:34;25.65;;;19.92;;
21239;SDS011;10778;48.962;9.018;2023-10-19T03:57:08;22.08;;;18.15;;
21239;SDS011;10778;48.962;9.018;2023-10-19T03:59:39;21.88;;;19.48;;
21239;SDS011;10778;48.962;9.018;2023-10-19T04:02:05;24.23;;;19.17;;
21239;SDS011;10778;48.962;9.018;2023-10-19T04:04:41;24.05;;;18.90;;
21239;SDS011;10778;48.962;9.018;2023-10-19T04:07:10;24.10;;;19.40;;
21239;SDS011;10778;48.962;9.018;2023-10-19T04:09:40;24.40;;;18.48;;
21239;SDS011;10778;48.962;9.018;2023-10-19T04:12:25;21.77;;;17.50;;
21239;SDS011;10778;48.962;9.018;2023-10-19T04:14:51;23.67;;;18.95;;
21239;SDS011;10778;48.962;9.018;2023-10-19T04:17:17;19.88;;;16.52;;
21239;SDS011;10778;48.962;9.018;2023-10-19T04:19:47;27.60;;;18.40;;
21239;SDS011;10778;48.962;9.018;2023-10-19T04:22:14;23.75;;;17.73;;
21239;SDS011;10778;48.962;9.018;2023-10-19T04:24:47;31.25;;;20.77;;
21239;SDS011;10778;48.962;9.018;2023-10-19T04:27:14;29.05;;;22.95;;
21239;SDS011;10778;48.962;9.018;2023-10-19T04:29:40;32.33;;;24.80;;
21239;SDS011;10778;48.962;9.018;2023-10-19T04:32:09;29.63;;;23.15;;
21239;SDS011;10778;48.962;9.018;2023-10-19T04:34:35;28.05;;;21.80;;
21239;SDS011;10778;48.962;9.018;2023-10-19T04:37:04;26.67;;;21.38;;
21239;SDS011;10778;48.962;9.018;2023-10-19T04:39:32;53.25;;;32.65;;
21239;SDS011;10778;48.962;9.018;2023-10-19T04:42:00;47.60;;;31.00;;
21239;SDS011;10778;48.962;9.018;2023-10-19T04:44:26;60.22;;;41.63;;
21239;SDS011;10778;48.962;9.018;2023-10-19T04:46:52;49.05;;;35.15;;
21239;SDS011;10778;48.962;9.018;2023-10-19T04:49:18;48.45;;;35.33;;
21239;SDS011;10778;48.962;9.018;2023-10-19T04:51:44;36.83;;;28.48;;
21239;SDS011;10778;48.962;9.018;2023-10-19T04:54:10;31.95;;;22.30;;
21239;SDS011;10778;48.962;9.018;2023-10-19T04:56:36;38.83;;;26.60;;
21239;SDS011;10778;48.962;9.018;2023-10-19T04:59:02;37.55;;;28.25;;
21239;SDS011;10778;48.962;9.018;2023-10-19T05:01:29;33.75;;;26.00;;
21239;SDS011;10778;48.962;9.018;2023-10-19T05:03:55;35.45;;;26.77;;
21239;SDS011;10778;48.962;9.018;2023-10-19T05:06:21;33.67;;;25.90;;
21239;SDS011;10778;48.962;9.018;2023-10-19T05:08:48;29.88;;;23.55;;
21239;SDS011;10778;48.962;9.018;2023-10-19T05:11:14;27.45;;;21.42;;
21239;SDS011;10778;48.962;9.018;2023-10-19T05:13:39;28.83;;;21.08;;
21239;SDS011;10778;48.962;9.018;2023-10-19T05:16:05;31.13;;;22.85;;
21239;SDS011;10778;48.962;9.018;2023-10-19T05:18:33;29.10;;;22.45;;
21239;SDS011;10778;48.962;9.018;2023-10-19T05:20:59;21.48;;;17.65;;
21239;SDS011;10778;48.962;9.018;2023-10-19T05:23:26;40.25;;;22.45;;
21239;SDS011;10778;48.962;9.018;2023-10-19T05:25:58;28.92;;;21.35;;
21239;SDS011;10778;48.962;9.018;2023-10-19T05:28:26;32.67;;;22.77;;
21239;SDS011;10778;48.962;9.018;2023-10-19T05:30:52;28.42;;;21.73;;
21239;SDS011;10778;48.962;9.018;2023-10-19T05:33:18;32.35;;;22.95;;
21239;SDS011;10778;48.962;9.018;2023-10-19T05:35:47;29.58;;;21.73;;
21239;SDS011;10778;48.962;9.018;2023-10-19T05:38:13;67.97;;;41.03;;
21239;SDS011;10778;48.962;9.018;2023-10-19T05:40:39;58.15;;;37.40;;
21239;SDS011;10778;48.962;9.018;2023-10-19T05:43:08;52.83;;;36.20;;
21239;SDS011;10778;48.962;9.018;2023-10-19T05:45:36;58.85;;;39.40;;
21239;SDS011;10778;48.962;9.018;2023-10-19T05:48:02;52.58;;;36.42;;
21239;SDS011;10778;48.962;9.018;2023-10-19T05:50:33;38.70;;;28.83;;
21239;SDS011;10778;48.962;9.018;2023-10-19T05:52:59;41.13;;;28.17;;
21239;SDS011;10778;48.962;9.018;2023-10-19T05:55:26;31.95;;;23.63;;
21239;SDS011;10778;48.962;9.018;2023-10-19T05:57:52;25.52;;;19.52;;
21239;SDS011;10778;48.962;9.018;2023-10-19T06:00:18;21.33;;;16.92;;
21239;SDS011;10778;48.962;9.018;2023-10-19T06:02:46;20.65;;;16.63;;
21239;SDS011;10778;48.962;9.018;2023-10-19T06:05:15;18.40;;;15.45;;
21239;SDS011;10778;48.962;9.018;2023-10-19T06:07:45;18.55;;;15.63;;
21239;SDS011;10778;48.962;9.018;2023-10-19T06:10:14;16.23;;;13.73;;
21239;SDS011;10778;48.962;9.018;2023-10-19T06:12:42;17.92;;;15.23;;
21239;SDS011;10778;48.962;9.018;2023-10-19T06:15:09;19.38;;;15.90;;
21239;SDS011;10778;48.962;9.018;2023-10-19T06:17:40;16.98;;;14.50;;
21239;SDS011;10778;48.962;9.018;2023-10-19T06:20:07;22.23;;;18.40;;
21239;SDS011;10778;48.962;9.018;2023-10-19T06:22:35;20.77;;;17.38;;
21239;SDS011;10778;48.962;9.018;2023-10-19T06:25:02;25.15;;;20.60;;
21239;SDS011;10778;48.962;9.018;2023-10-19T06:27:30;21.33;;;17.00;;
21239;SDS011;10778;48.962;9.018;2023-10-19T06:29:57;17.30;;;15.40;;
21239;SDS011;10778;48.962;9.018;2023-10-19T06:32:23;18.13;;;14.30;;
21239;SDS011;10778;48.962;9.018;2023-10-19T06:34:49;17.60;;;14.63;;
21239;SDS011;10778;48.962;9.018;2023-10-19T06:37:15;23.45;;;16.98;;
21239;SDS011;10778;48.962;9.018;2023-10-19T06:39:41;38.05;;;29.15;;
21239;SDS011;10778;48.962;9.018;2023-10-19T06:42:08;62.85;;;42.53;;
21239;SDS011;10778;48.962;9.018;2023-10-19T06:44:42;44.15;;;32.03;;
21239;SDS011;10778;48.962;9.018;2023-10-19T06:47:09;34.63;;;25.60;;
21239;SDS011;10778;48.962;9.018;2023-10-19T06:49:36;26.45;;;21.05;;
21239;SDS011;10778;48.962;9.018;2023-10-19T06:52:02;20.88;;;17.25;;
21239;SDS011;10778;48.962;9.018;2023-10-19T06:54:30;23.35;;;19.17;;
21239;SDS011;10778;48.962;9.018;2023-10-19T06:56:57;20.83;;;16.83;;
21239;SDS011;10778;48.962;9.018;2023-10-19T06:59:23;19.48;;;16.35;;
21239;SDS011;10778;48.962;9.018;2023-10-19T07:01:49;19.92;;;16.98;;
21239;SDS011;10778;48.962;9.018;2023-10-19T07:04:16;22.20;;;17.77;;
21239;SDS011;10778;48.962;9.018;2023-10-19T07:06:41;21.90;;;16.95;;
21239;SDS011;10778;48.962;9.018;2023-10-19T07:09:07;19.00;;;16.38;;
21239;SDS011;10778;48.962;9.018;2023-10-19T07:11:36;22.48;;;18.02;;
21239;SDS011;10778;48.962;9.018;2023-10-19T07:14:02;20.98;;;16.63;;
21239;SDS011;10778;48.962;9.018;2023-10-19T07:16:30;19.50;;;16.85;;
21239;SDS011;10778;48.962;9.018;2023-10-19T07:18:56;17.50;;;15.60;;
21239;SDS011;10778;48.962;9.018;2023-10-19T07:21:24;15.75;;;14.02;;
21239;SDS011;10778;48.962;9.018;2023-10-19T07:23:50;16.85;;;14.60;;
21239;SDS011;10778;48.962;9.018;2023-10-19T07:26:19;18.08;;;15.43;;
21239;SDS011;10778;48.962;9.018;2023-10-19T07:28:47;18.40;;;14.90;;
21239;SDS011;10778;48.962;9.018;2023-10-19T07:31:12;17.75;;;13.52;;
21239;SDS011;10778;48.962;9.018;2023-10-19T07:33:41;15.63;;;13.82;;
21239;SDS011;10778;48.962;9.018;2023-10-19T07:36:14;18.48;;;14.55;;
21239;SDS011;10778;48.962;9.018;2023-10-19T07:38:40;17.60;;;14.20;;
21239;SDS011;10778;48.962;9.018;2023-10-19T07:41:08;14.88;;;13.27;;
21239;SDS011;10778;48.962;9.018;2023-10-19T07:43:35;15.82;;;13.63;;
21239;SDS011;10778;48.962;9.018;2023-10-19T07:46:02;16.42;;;14.13;;
21239;SDS011;10778;48.962;9.018;2023-10-19T07:48:28;16.25;;;13.70;;
21239;SDS011;10778;48.962;9.018;2023-10-19T07:50:54;18.27;;;15.02;;
21239;SDS011;10778;48.962;9.018;2023-10-19T07:53:21;21.10;;;17.58;;
21239;SDS011;10778;48.962;9.018;2023-10-19T07:55:48;19.75;;;15.98;;
21239;SDS011;10778;48.962;9.018;2023-10-19T07:58:14;18.08;;;14.60;;
21239;SDS011;10778;48.962;9.018;2023-10-19T08:00:39;16.98;;;15.18;;
21239;SDS011;10778;48.962;9.018;2023-10-19T08:03:07;17.60;;;15.40;;
21239;SDS011;10778;48.962;9.018;2023-10-19T08:05:34;16.17;;;14.48;;
21239;SDS011;10778;48.962;9.018;2023-10-19T08:08:01;16.95;;;14.35;;
21239;SDS011;10778;48.962;9.018;2023-10-19T08:10:29;15.60;;;13.88;;
21239;SDS011;10778;48.962;9.018;2023-10-19T08:12:55;18.63;;;14.80;;
21239;SDS011;10778;48.962;9.018;2023-10-19T08:15:21;16.77;;;13.20;;
21239;SDS011;10778;48.962;9.018;2023-10-19T08:17:49;15.20;;;11.30;;
21239;SDS011;10778;48.962;9.018;2023-10-19T08:20:16;11.95;;;9.25;;
21239;SDS011;10778;48.962;9.018;2023-10-19T08:22:43;11.40;;;8.90;;
21239;SDS011;10778;48.962;9.018;2023-10-19T08:25:12;10.50;;;8.30;;
21239;SDS011;10778;48.962;9.018;2023-10-19T08:27:46;10.10;;;8.07;;
21239;SDS011;10778;48.962;9.018;2023-10-19T08:30:19;10.05;;;7.70;;
21239;SDS011;10778;48.962;9.018;2023-10-19T08:32:50;9.48;;;7.63;;
21239;SDS011;10778;48.962;9.018;2023-10-19T08:35:18;8.32;;;7.00;;
21239;SDS011;10778;48.962;9.018;2023-10-19T08:37:46;11.48;;;7.70;;
21239;SDS011;10778;48.962;9.018;2023-10-19T08:40:13;11.30;;;8.57;;
21239;SDS011;10778;48.962;9.018;2023-10-19T08:42:43;10.35;;;8.20;;
21239;SDS011;10778;48.962;9.018;2023-10-19T08:45:13;10.82;;;8.10;;
21239;SDS011;10778;48.962;9.018;2023-10-19T08:47:54;9.63;;;7.80;;
21239;SDS011;10778;48.962;9.018;2023-10-19T08:50:27;12.68;;;9.35;;
21239;SDS011;10778;48.962;9.018;2023-10-19T08:52:57;11.13;;;8.65;;
21239;SDS011;10778;48.962;9.018;2023-10-19T08:55:24;13.75;;;9.43;;
21239;SDS011;10778;48.962;9.018;2023-10-19T08:57:51;13.23;;;9.15;;
21239;SDS011;10778;48.962;9.018;2023-10-19T09:00:18;11.80;;;8.75;;
21239;SDS011;10778;48.962;9.018;2023-10-19T09:02:48;12.18;;;8.60;;
21239;SDS011;10778;48.962;9.018;2023-10-19T09:05:14;9.77;;;8.60;;
21239;SDS011;10778;48.962;9.018;2023-10-19T09:07:48;12.80;;;9.15;;
21239;SDS011;10778;48.962;9.018;2023-10-19T09:10:25;12.00;;;8.45;;
21239;SDS011;10778;48.962;9.018;2023-10-19T09:13:05;10.02;;;8.30;;
21239;SDS011;10778;48.962;9.018;2023-10-19T09:15:35;11.68;;;8.50;;
21239;SDS011;10778;48.962;9.018;2023-10-19T09:20:38;11.10;;;7.47;;
21239;SDS011;10778;48.962;9.018;2023-10-19T09:23:04;9.70;;;7.45;;
21239;SDS011;10778;48.962;9.018;2023-10-19T09:25:33;9.82;;;7.40;;
21239;SDS011;10778;48.962;9.018;2023-10-19T09:28:01;10.40;;;8.18;;
21239;SDS011;10778;48.962;9.018;2023-10-19T09:30:28;14.95;;;10.13;;
21239;SDS011;10778;48.962;9.018;2023-10-19T09:32:56;16.92;;;12.40;;
21239;SDS011;10778;48.962;9.018;2023-10-19T09:35:23;13.05;;;10.57;;
21239;SDS011;10778;48.962;9.018;2023-10-19T09:37:56;12.13;;;8.68;;
21239;SDS011;10778;48.962;9.018;2023-10-19T09:40:22;10.20;;;8.20;;
21239;SDS011;10778;48.962;9.018;2023-10-19T09:42:49;9.60;;;8.02;;
21239;SDS011;10778;48.962;9.018;2023-10-19T09:45:19;11.05;;;8.02;;
21239;SDS011;10778;48.962;9.018;2023-10-19T09:47:48;8.43;;;7.13;;
21239;SDS011;10778;48.962;9.018;2023-10-19T09:50:16;12.52;;;7.70;;
21239;SDS011;10778;48.962;9.018;2023-10-19T09:52:42;13.40;;;8.05;;
21239;SDS011;10778;48.962;9.018;2023-10-19T09:55:12;11.77;;;7.60;;
21239;SDS011;10778;48.962;9.018;2023-10-19T10:00:29;10.50;;;7.68;;
21239;SDS011;10778;48.962;9.018;2023-10-19T10:03:00;11.25;;;7.90;;
21239;SDS011;10778;48.962;9.018;2023-10-19T10:05:44;11.90;;;7.03;;
21239;SDS011;10778;48.962;9.018;2023-10-19T10:10:46;11.10;;;7.18;;
21239;SDS011;10778;48.962;9.018;2023-10-19T10:15:57;10.13;;;7.90;;
21239;SDS011;10778;48.962;9.018;2023-10-19T10:18:26;10.70;;;6.88;;
21239;SDS011;10778;48.962;9.018;2023-10-19T10:21:05;9.35;;;7.10;;
21239;SDS011;10778;48.962;9.018;2023-10-19T10:23:40;8.00;;;6.32;;
21239;SDS011;10778;48.962;9.018;2023-10-19T10:26:11;7.65;;;6.57;;
21239;SDS011;10778;48.962;9.018;2023-10-19T10:28:45;10.88;;;6.50;;
21239;SDS011;10778;48.962;9.018;2023-10-19T10:31:33;12.30;;;7.03;;
21239;SDS011;10778;48.962;9.018;2023-10-19T10:34:06;10.05;;;6.65;;
21239;SDS011;10778;48.962;9.018;2023-10-19T10:39:29;9.68;;;7.93;;
21239;SDS011;10778;48.962;9.018;2023-10-19T10:41:57;10.95;;;8.18;;
21239;SDS011;10778;48.962;9.018;2023-10-19T10:44:40;11.52;;;9.02;;
21239;SDS011;10778;48.962;9.018;2023-10-19T10:47:11;13.38;;;8.48;;
21239;SDS011;10778;48.962;9.018;2023-10-19T10:49:56;12.40;;;7.82;;
21239;SDS011;10778;48.962;9.018;2023-10-19T10:54:49;6.32;;;3.40;;
21239;SDS011;10778;48.962;9.018;2023-10-19T10:57:15;4.47;;;2.70;;
21239;SDS011;10778;48.962;9.018;2023-10-19T10:59:41;4.93;;;2.70;;
21239;SDS011;10778;48.962;9.018;2023-10-19T11:02:17;5.43;;;2.65;;
21239;SDS011;10778;48.962;9.018;2023-10-19T11:04:45;4.03;;;2.55;;
21239;SDS011;10778;48.962;9.018;2023-10-19T11:07:18;3.83;;;2.60;;
21239;SDS011;10778;48.962;9.018;2023-10-19T11:09:46;6.07;;;2.65;;
21239;SDS011;10778;48.962;9.018;2023-10-19T11:12:13;4.20;;;2.70;;
21239;SDS011;10778;48.962;9.018;2023-10-19T11:14:56;8.02;;;2.80;;
21239;SDS011;10778;48.962;9.018;2023-10-19T11:17:25;5.95;;;2.60;;
21239;SDS011;10778;48.962;9.018;2023-10-19T11:19:56;4.22;;;2.17;;
21239;SDS011;10778;48.962;9.018;2023-10-19T11:22:23;4.90;;;2.67;;
21239;SDS011;10778;48.962;9.018;2023-10-19T11:24:53;5.05;;;2.40;;
21239;SDS011;10778;48.962;9.018;2023-10-19T11:27:26;4.93;;;2.60;;
21239;SDS011;10778;48.962;9.018;2023-10-19T11:29:54;4.03;;;2.47;;
21239;SDS011;10778;48.962;9.018;2023-10-19T11:32:21;4.97;;;2.22;;
21239;SDS011;10778;48.962;9.018;2023-10-19T11:34:47;5.53;;;2.50;;
21239;SDS011;10778;48.962;9.018;2023-10-19T11:37:13;5.13;;;2.67;;
21239;SDS011;10778;48.962;9.018;2023-10-19T11:39:39;8.32;;;4.68;;
21239;SDS011;10778;48.962;9.018;2023-10-19T11:42:05;34.30;;;19.30;;
21239;SDS011;10778;48.962;9.018;2023-10-19T11:44:31;13.82;;;7.20;;
21239;SDS011;10778;48.962;9.018;2023-10-19T11:46:58;9.27;;;5.32;;
21239;SDS011;10778;48.962;9.018;2023-10-19T11:49:24;7.63;;;4.82;;
21239;SDS011;10778;48.962;9.018;2023-10-19T11:51:50;6.95;;;5.07;;
21239;SDS011;10778;48.962;9.018;2023-10-19T11:54:16;8.55;;;6.55;;
21239;SDS011;10778;48.962;9.018;2023-10-19T11:56:43;10.40;;;6.57;;
21239;SDS011;10778;48.962;9.018;2023-10-19T11:59:09;7.60;;;4.07;;
21239;SDS011;10778;48.962;9.018;2023-10-19T12:01:38;7.43;;;4.57;;
21239;SDS011;10778;48.962;9.018;2023-10-19T12:04:04;8.18;;;6.53;;
21239;SDS011;10778;48.962;9.018;2023-10-19T12:06:31;12.15;;;7.78;;
21239;SDS011;10778;48.962;9.018;2023-10-19T12:08:57;11.10;;;6.50;;
21239;SDS011;10778;48.962;9.018;2023-10-19T12:11:25;9.13;;;6.57;;
21239;SDS011;10778;48.962;9.018;2023-10-19T12:13:51;11.50;;;6.15;;
21239;SDS011;10778;48.962;9.018;2023-10-19T12:16:17;12.07;;;8.10;;
21239;SDS011;10778;48.962;9.018;2023-10-19T12:18:43;11.80;;;6.45;;
21239;SDS011;10778;48.962;9.018;2023-10-19T12:21:09;9.43;;;5.57;;
21239;SDS011;10778;48.962;9.018;2023-10-19T12:23:42;7.22;;;4.15;;
21239;SDS011;10778;48.962;9.018;2023-10-19T12:26:09;9.15;;;3.78;;
21239;SDS011;10778;48.962;9.018;2023-10-19T12:28:38;7.18;;;4.18;;
21239;SDS011;10778;48.962;9.018;2023-10-19T12:31:06;5.30;;;3.88;;
21239;SDS011;10778;48.962;9.018;2023-10-19T12:33:36;7.30;;;4.80;;
21239;SDS011;10778;48.962;9.018;2023-10-19T12:36:04;5.55;;;4.45;;
21239;SDS011;10778;48.962;9.018;2023-10-19T12:38:50;6.03;;;3.42;;
21239;SDS011;10778;48.962;9.018;2023-10-19T12:41:17;5.07;;;3.42;;
21239;SDS011;10778;48.962;9.018;2023-10-19T12:43:44;5.50;;;3.22;;
21239;SDS011;10778;48.962;9.018;2023-10-19T12:46:12;6.22;;;3.20;;
21239;SDS011;10778;48.962;9.018;2023-10-19T12:48:39;5.43;;;3.28;;
21239;SDS011;10778;48.962;9.018;2023-10-19T12:51:06;6.00;;;3.30;;
21239;SDS011;10778;48.962;9.018;2023-10-19T12:53:32;5.40;;;3.38;;
21239;SDS011;10778;48.962;9.018;2023-10-19T12:55:59;5.93;;;3.58;;
21239;SDS011;10778;48.962;9.018;2023-10-19T12:58:25;5.50;;;3.90;;
21239;SDS011;10778;48.962;9.018;2023-10-19T13:00:53;5.18;;;4.00;;
21239;SDS011;10778;48.962;9.018;2023-10-19T13:03:21;5.90;;;4.05;;
21239;SDS011;10778;48.962;9.018;2023-10-19T13:05:48;8.55;;;6.65;;
21239;SDS011;10778;48.962;9.018;2023-10-19T13:08:15;8.48;;;7.03;;
21239;SDS011;10778;48.962;9.018;2023-10-19T13:10:42;7.85;;;4.60;;
21239;SDS011;10778;48.962;9.018;2023-10-19T13:13:10;7.32;;;4.95;;
21239;SDS011;10778;48.962;9.018;2023-10-19T13:15:38;6.90;;;4.65;;
21239;SDS011;10778;48.962;9.018;2023-10-19T13:18:06;7.32;;;5.00;;
21239;SDS011;10778;48.962;9.018;2023-10-19T13:20:35;6.93;;;3.95;;
21239;SDS011;10778;48.962;9.018;2023-10-19T13:23:02;5.35;;;3.72;;
21239;SDS011;10778;48.962;9.018;2023-10-19T13:25:30;4.93;;;3.38;;
21239;SDS011;10778;48.962;9.018;2023-10-19T13:28:16;5.65;;;3.70;;
21239;SDS011;10778;48.962;9.018;2023-10-19T13:30:45;5.93;;;3.83;;
21239;SDS011;10778;48.962;9.018;2023-10-19T13:33:15;6.60;;;3.88;;
21239;SDS011;10778;48.962;9.018;2023-10-19T13:35:43;6.13;;;3.75;;
21239;SDS011;10778;48.962;9.018;2023-10-19T13:38:10;6.35;;;4.13;;
21239;SDS011;10778;48.962;9.018;2023-10-19T13:40:37;7.43;;;3.80;;
21239;SDS011;10778;48.962;9.018;2023-10-19T13:43:04;5.15;;;4.03;;
21239;SDS011;10778;48.962;9.018;2023-10-19T13:45:32;6.03;;;3.90;;
21239;SDS011;10778;48.962;9.018;2023-10-19T13:48:03;6.75;;;4.10;;
21239;SDS011;10778;48.962;9.018;2023-10-19T13:50:30;5.32;;;3.83;;
21239;SDS011;10778;48.962;9.018;2023-10-19T13:52:57;6.07;;;3.70;;
21239;SDS011;10778;48.962;9.018;2023-10-19T13:55:26;7.57;;;3.92;;
21239;SDS011;10778;48.962;9.018;2023-10-19T13:57:52;4.63;;;3.20;;
21239;SDS011;10778;48.962;9.018;2023-10-19T14:00:20;6.35;;;3.63;;
21239;SDS011;10778;48.962;9.018;2023-10-19T14:02:56;12.18;;;6.57;;
21239;SDS011;10778;48.962;9.018;2023-10-19T14:05:27;7.38;;;5.97;;
21239;SDS011;10778;48.962;9.018;2023-10-19T14:07:54;8.63;;;4.85;;
21239;SDS011;10778;48.962;9.018;2023-10-19T14:10:21;6.95;;;4.32;;
21239;SDS011;10778;48.962;9.018;2023-10-19T14:12:47;5.43;;;4.22;;
21239;SDS011;10778;48.962;9.018;2023-10-19T14:15:15;7.35;;;4.72;;
21239;SDS011;10778;48.962;9.018;2023-10-19T14:17:46;6.93;;;4.47;;
21239;SDS011;10778;48.962;9.018;2023-10-19T14:20:13;6.68;;;4.82;;
21239;SDS011;10778;48.962;9.018;2023-10-19T14:22:50;7.03;;;4.93;;
21239;SDS011;10778;48.962;9.018;2023-10-19T14:25:19;6.63;;;4.50;;
21239;SDS011;10778;48.962;9.018;2023-10-19T14:27:48;6.78;;;4.80;;
21239;SDS011;10778;48.962;9.018;2023-10-19T14:30:15;6.55;;;4.65;;
21239;SDS011;10778;48.962;9.018;2023-10-19T14:32:43;16.83;;;12.00;;
21239;SDS011;10778;48.962;9.018;2023-10-19T14:35:11;13.35;;;9.70;;
21239;SDS011;10778;48.962;9.018;2023-10-19T14:37:38;13.20;;;7.22;;
21239;SDS011;10778;48.962;9.018;2023-10-19T14:40:07;9.77;;;7.50;;
21239;SDS011;10778;48.962;9.018;2023-10-19T14:42:38;12.35;;;8.45;;
21239;SDS011;10778;48.962;9.018;2023-10-19T14:45:08;14.00;;;11.38;;
21239;SDS011;10778;48.962;9.018;2023-10-19T14:47:35;14.18;;;11.35;;
21239;SDS011;10778;48.962;9.018;2023-10-19T14:50:11;13.55;;;9.48;;
21239;SDS011;10778;48.962;9.018;2023-10-19T14:52:42;11.40;;;9.05;;
21239;SDS011;10778;48.962;9.018;2023-10-19T14:55:09;13.80;;;10.68;;
21239;SDS011;10778;48.962;9.018;2023-10-19T14:57:36;21.45;;;15.70;;